createdAt,value
2017-05-04T00:01:01.747Z,10.50
2017-05-04T00:03:29.353Z,10.50
2017-05-04T00:05:57.248Z,10.40
2017-05-04T00:08:25.314Z,10.50
2017-05-04T00:10:53.258Z,10.50
2017-05-04T00:13:20.827Z,10.50
2017-05-04T00:15:48.880Z,10.40
2017-05-04T00:18:16.779Z,10.40
2017-05-04T00:20:45.307Z,10.40
2017-05-04T00:23:12.962Z,10.40
2017-05-04T00:25:40.851Z,10.40
2017-05-04T00:28:09.053Z,10.50
2017-05-04T00:30:36.789Z,10.50
2017-05-04T00:33:04.954Z,10.40
2017-05-04T00:35:32.936Z,10.60
2017-05-04T00:38:00.851Z,10.50
2017-05-04T00:40:28.936Z,10.40
2017-05-04T00:42:57.040Z,10.50
2017-05-04T00:45:25.105Z,10.60
2017-05-04T00:47:53.020Z,10.60
2017-05-04T00:50:20.893Z,10.70
2017-05-04T00:52:49.071Z,10.70
2017-05-04T00:55:17.266Z,10.60
2017-05-04T00:57:45.520Z,10.50
2017-05-04T01:00:13.407Z,10.50
2017-05-04T01:02:40.953Z,10.50
2017-05-04T01:05:09.056Z,10.40
2017-05-04T01:07:37.653Z,10.30
2017-05-04T01:10:05.584Z,10.40
2017-05-04T01:12:33.505Z,10.60
2017-05-04T01:15:02.237Z,10.60
2017-05-04T01:17:29.844Z,10.60
2017-05-04T01:19:57.715Z,10.70
2017-05-04T01:22:25.212Z,10.70
2017-05-04T01:24:53.089Z,10.70
2017-05-04T01:27:20.612Z,10.70
2017-05-04T01:29:48.096Z,10.60
2017-05-04T01:32:15.993Z,10.60
2017-05-04T01:34:43.469Z,10.60
2017-05-04T01:37:10.963Z,10.70
2017-05-04T01:39:38.836Z,10.70
2017-05-04T01:42:06.728Z,10.70
2017-05-04T01:44:34.602Z,10.70
2017-05-04T01:47:02.100Z,10.70
2017-05-04T01:49:30.030Z,10.70
2017-05-04T01:51:57.535Z,10.70
2017-05-04T01:54:25.405Z,10.70
2017-05-04T01:56:53.452Z,10.60
2017-05-04T01:59:21.341Z,10.60
2017-05-04T02:01:49.219Z,10.60
2017-05-04T02:04:16.714Z,10.60
2017-05-04T02:06:44.596Z,10.70
2017-05-04T02:09:12.860Z,10.70
2017-05-04T02:11:40.728Z,10.70
2017-05-04T02:14:08.974Z,10.70
2017-05-04T02:16:36.850Z,10.60
2017-05-04T02:19:04.339Z,10.60
2017-05-04T02:21:31.804Z,10.70
2017-05-04T02:23:59.288Z,10.70
2017-05-04T02:26:27.224Z,10.60
2017-05-04T02:28:55.086Z,10.60
2017-05-04T02:31:23.279Z,10.60
2017-05-04T02:33:50.769Z,10.60
2017-05-04T02:36:18.633Z,10.60
2017-05-04T02:38:46.120Z,10.60
2017-05-04T02:41:13.583Z,10.60
2017-05-04T02:43:41.071Z,10.60
2017-05-04T02:46:08.538Z,10.60
2017-05-04T02:48:36.025Z,10.60
2017-05-04T02:51:03.887Z,10.40
2017-05-04T02:53:31.770Z,10.30
2017-05-04T02:55:59.763Z,10.50
2017-05-04T02:58:27.644Z,10.40
2017-05-04T03:00:55.115Z,10.50
2017-05-04T03:03:22.995Z,10.50
2017-05-04T03:05:50.854Z,10.60
2017-05-04T03:08:18.735Z,10.70
2017-05-04T03:10:46.608Z,10.70
2017-05-04T03:13:14.488Z,10.60
2017-05-04T03:15:42.347Z,10.60
2017-05-04T03:18:10.222Z,10.70
2017-05-04T03:20:38.079Z,10.60
2017-05-04T03:23:05.955Z,10.70
2017-05-04T03:25:33.851Z,10.70
2017-05-04T03:28:01.731Z,10.70
2017-05-04T03:30:29.591Z,10.70
2017-05-04T03:32:57.457Z,10.70
2017-05-04T03:35:24.943Z,10.70
2017-05-04T03:37:52.823Z,10.60
2017-05-04T03:40:20.287Z,10.60
2017-05-04T03:42:48.163Z,10.50
2017-05-04T03:45:15.627Z,10.50
2017-05-04T03:47:43.504Z,10.60
2017-05-04T03:50:11.364Z,10.70
2017-05-04T03:52:39.253Z,10.70
2017-05-04T03:55:06.930Z,10.70
2017-05-04T03:57:34.823Z,10.70
2017-05-04T04:00:02.703Z,10.60
2017-05-04T04:02:30.593Z,10.70
2017-05-04T04:04:58.464Z,10.70
2017-05-04T04:07:26.355Z,10.80
2017-05-04T04:09:54.600Z,10.80
2017-05-04T04:12:22.497Z,10.70
2017-05-04T04:14:50.368Z,10.70
2017-05-04T04:17:18.464Z,10.70
2017-05-04T04:19:46.345Z,10.70
2017-05-04T04:22:14.236Z,10.70
2017-05-04T04:24:42.109Z,10.70
2017-05-04T04:27:10.000Z,10.60
2017-05-04T04:29:37.480Z,10.70
2017-05-04T04:32:05.352Z,10.60
2017-05-04T04:34:32.844Z,10.60
2017-05-04T04:37:00.723Z,10.70
2017-05-04T04:39:28.589Z,10.70
2017-05-04T04:41:56.474Z,10.70
2017-05-04T04:44:24.709Z,10.60
2017-05-04T04:46:52.594Z,10.60
2017-05-04T04:49:20.455Z,10.70
2017-05-04T04:51:48.331Z,10.70
2017-05-04T04:54:16.200Z,10.80
2017-05-04T04:56:44.079Z,10.80
2017-05-04T04:59:11.947Z,10.80
2017-05-04T05:01:39.828Z,10.80
2017-05-04T05:04:07.291Z,10.80
2017-05-04T05:06:34.775Z,10.80
2017-05-04T05:09:02.643Z,10.80
2017-05-04T05:11:30.520Z,10.80
2017-05-04T05:13:58.383Z,10.80
2017-05-04T05:16:26.290Z,10.80
2017-05-04T05:18:54.171Z,10.90
2017-05-04T05:21:21.651Z,10.80
2017-05-04T05:23:49.125Z,10.80
2017-05-04T05:26:17.002Z,10.80
2017-05-04T05:28:44.869Z,10.90
2017-05-04T05:31:12.351Z,10.80
2017-05-04T05:33:40.214Z,10.90
2017-05-04T05:36:07.691Z,10.90
2017-05-04T05:38:35.576Z,10.90
2017-05-04T05:41:03.062Z,10.90
2017-05-04T05:43:30.923Z,10.90
2017-05-04T05:45:58.551Z,10.90
2017-05-04T05:48:26.024Z,10.90
2017-05-04T05:50:53.904Z,10.90
2017-05-04T05:53:21.375Z,10.90
2017-05-04T05:55:48.867Z,10.90
2017-05-04T05:58:16.732Z,10.90
2017-05-04T06:00:44.604Z,10.90
2017-05-04T06:03:12.847Z,11.00
2017-05-04T06:05:40.740Z,11.00
2017-05-04T06:08:08.610Z,10.90
2017-05-04T06:10:36.501Z,11.00
2017-05-04T06:13:04.380Z,11.00
2017-05-04T06:15:32.009Z,11.00
2017-05-04T06:17:59.910Z,11.00
2017-05-04T06:20:27.398Z,11.00
2017-05-04T06:22:55.274Z,11.00
2017-05-04T06:25:23.154Z,10.90
2017-05-04T06:27:51.015Z,10.90
2017-05-04T06:30:18.903Z,10.90
2017-05-04T06:32:46.780Z,10.90
2017-05-04T06:35:14.263Z,10.90
2017-05-04T06:37:41.732Z,10.90
2017-05-04T06:40:09.590Z,10.90
2017-05-04T06:42:37.470Z,10.90
2017-05-04T06:45:05.355Z,10.90
2017-05-04T06:47:33.291Z,10.90
2017-05-04T06:50:01.372Z,10.80
2017-05-04T06:52:29.247Z,10.80
2017-05-04T06:54:57.146Z,10.80
2017-05-04T06:57:25.241Z,10.80
2017-05-04T06:59:54.460Z,10.80
2017-05-04T07:02:21.946Z,10.80
2017-05-04T07:04:49.832Z,10.90
2017-05-04T07:07:17.829Z,10.90
2017-05-04T07:09:45.313Z,10.90
2017-05-04T07:12:13.175Z,11.00
2017-05-04T07:14:40.661Z,11.00
2017-05-04T07:17:08.528Z,10.90
2017-05-04T07:19:36.411Z,11.00
2017-05-04T07:22:04.667Z,11.10
2017-05-04T07:24:32.543Z,11.20
2017-05-04T07:27:00.402Z,11.30
2017-05-04T07:29:28.285Z,11.40
2017-05-04T07:31:56.147Z,11.40
2017-05-04T07:34:23.631Z,11.40
2017-05-04T07:36:51.903Z,11.70
2017-05-04T07:39:19.367Z,11.70
2017-05-04T07:41:46.864Z,11.70
2017-05-04T07:44:14.332Z,11.80
2017-05-04T07:46:42.215Z,11.90
2017-05-04T07:49:10.074Z,12.00
2017-05-04T07:51:37.555Z,12.00
2017-05-04T07:54:05.786Z,12.00
2017-05-04T07:56:33.685Z,12.00
2017-05-04T07:59:01.559Z,12.10
2017-05-04T08:01:29.435Z,12.10
2017-05-04T08:03:56.899Z,12.10
2017-05-04T08:06:24.783Z,12.40
2017-05-04T08:08:52.647Z,12.60
2017-05-04T08:11:20.130Z,12.60
2017-05-04T08:13:47.995Z,12.80
2017-05-04T08:16:15.876Z,12.90
2017-05-04T08:18:43.763Z,13.00
2017-05-04T08:21:11.244Z,13.00
2017-05-04T08:23:39.101Z,13.00
2017-05-04T08:26:07.415Z,13.00
2017-05-04T08:28:35.267Z,13.00
2017-05-04T08:31:03.147Z,13.00
2017-05-04T08:33:30.688Z,13.00
2017-05-04T08:35:58.807Z,13.00
2017-05-04T08:38:26.671Z,13.00
2017-05-04T08:40:54.975Z,13.10
2017-05-04T08:43:22.845Z,13.20
2017-05-04T08:45:50.724Z,13.20
2017-05-04T08:48:18.213Z,13.20
2017-05-04T08:50:46.078Z,13.10
2017-05-04T08:53:13.959Z,13.10
2017-05-04T08:55:41.464Z,13.00
2017-05-04T08:58:09.336Z,12.90
2017-05-04T09:00:37.216Z,12.90
2017-05-04T09:03:05.078Z,12.90
2017-05-04T09:05:32.641Z,12.90
2017-05-04T09:08:00.515Z,13.00
2017-05-04T09:10:28.007Z,13.00
2017-05-04T09:12:55.877Z,13.10
2017-05-04T09:15:23.753Z,13.20
2017-05-04T09:17:51.620Z,13.40
2017-05-04T09:20:19.498Z,13.30
2017-05-04T09:22:47.360Z,13.20
2017-05-04T09:25:15.224Z,13.20
2017-05-04T09:27:43.104Z,13.20
2017-05-04T09:30:10.963Z,13.30
2017-05-04T09:32:38.445Z,13.30
2017-05-04T09:35:06.686Z,13.20
2017-05-04T09:37:34.546Z,13.20
2017-05-04T09:40:02.407Z,13.00
2017-05-04T09:42:30.283Z,13.20
2017-05-04T09:44:58.162Z,13.30
2017-05-04T09:47:26.045Z,13.30
2017-05-04T09:49:53.527Z,13.30
2017-05-04T09:52:21.514Z,13.40
2017-05-04T09:54:48.998Z,13.40
2017-05-04T09:57:16.891Z,13.50
2017-05-04T09:59:44.772Z,13.60
2017-05-04T10:02:12.248Z,13.60
2017-05-04T10:04:39.748Z,13.60
2017-05-04T10:07:07.611Z,13.30
2017-05-04T10:09:35.603Z,13.40
2017-05-04T10:12:03.472Z,13.50
2017-05-04T10:14:31.382Z,13.50
2017-05-04T10:16:58.864Z,13.50
2017-05-04T10:19:26.752Z,13.20
2017-05-04T10:21:55.965Z,13.20
2017-05-04T10:24:23.843Z,13.40
2017-05-04T10:26:51.907Z,13.40
2017-05-04T10:29:19.790Z,13.20
2017-05-04T10:31:47.263Z,13.20
2017-05-04T10:34:14.758Z,13.30
2017-05-04T10:36:42.653Z,13.10
2017-05-04T10:39:10.539Z,13.30
2017-05-04T10:41:38.409Z,13.30
2017-05-04T10:44:06.283Z,13.10
2017-05-04T10:46:34.180Z,12.90
2017-05-04T10:49:02.074Z,13.00
2017-05-04T10:51:29.965Z,13.00
2017-05-04T10:53:57.859Z,12.70
2017-05-04T10:56:25.379Z,12.80
2017-05-04T10:58:53.265Z,12.20
2017-05-04T11:01:20.785Z,12.20
2017-05-04T11:03:48.687Z,12.20
2017-05-04T11:06:16.574Z,12.00
2017-05-04T11:08:44.061Z,12.00
2017-05-04T11:11:11.967Z,11.60
2017-05-04T11:13:39.456Z,11.60
2017-05-04T11:16:06.927Z,11.50
2017-05-04T11:18:35.225Z,11.40
2017-05-04T11:21:03.147Z,11.30
2017-05-04T11:23:31.027Z,11.30
2017-05-04T11:25:59.050Z,11.30
2017-05-04T11:28:27.304Z,11.30
2017-05-04T11:30:55.207Z,11.30
2017-05-04T11:33:23.113Z,11.30
2017-05-04T11:35:54.033Z,11.40
2017-05-04T11:38:23.557Z,11.50
2017-05-04T11:40:53.187Z,11.70
2017-05-04T11:43:25.802Z,11.90
2017-05-04T11:45:54.876Z,12.10
2017-05-04T11:48:22.822Z,12.10
2017-05-04T11:50:50.680Z,12.10
2017-05-04T11:53:18.562Z,12.20
2017-05-04T11:55:46.427Z,12.40
2017-05-04T11:58:14.303Z,12.30
2017-05-04T12:00:42.164Z,12.20
2017-05-04T12:03:10.048Z,11.90
2017-05-04T12:05:38.279Z,11.80
2017-05-04T12:08:06.140Z,11.60
2017-05-04T12:10:33.619Z,11.60
2017-05-04T12:13:01.499Z,11.30
2017-05-04T12:15:28.963Z,11.40
2017-05-04T12:17:56.851Z,11.10
2017-05-04T12:20:24.317Z,11.10
2017-05-04T12:22:52.199Z,11.00
2017-05-04T12:25:20.058Z,11.00
2017-05-04T12:27:48.052Z,11.00
2017-05-04T12:30:15.914Z,11.10
2017-05-04T12:32:44.444Z,11.00
2017-05-04T12:35:12.372Z,10.90
2017-05-04T12:37:40.253Z,10.80
2017-05-04T12:40:07.899Z,10.90
2017-05-04T12:42:35.778Z,11.00
2017-05-04T12:45:03.245Z,11.00
2017-05-04T12:47:31.124Z,11.10
2017-05-04T12:49:58.621Z,11.10
2017-05-04T12:52:26.487Z,10.90
2017-05-04T12:54:54.362Z,10.80
2017-05-04T12:57:22.383Z,10.80
2017-05-04T12:59:50.327Z,10.70
2017-05-04T13:02:18.210Z,10.70
2017-05-04T13:04:46.577Z,10.70
2017-05-04T13:07:15.083Z,10.70
2017-05-04T13:09:43.480Z,10.80
2017-05-04T13:12:11.427Z,10.80
2017-05-04T13:14:39.666Z,10.90
2017-05-04T13:17:08.043Z,10.90
2017-05-04T13:19:36.435Z,11.10
2017-05-04T13:22:05.267Z,11.30
2017-05-04T13:24:33.360Z,11.40
2017-05-04T13:27:01.736Z,11.40
2017-05-04T13:29:29.679Z,11.40
2017-05-04T13:31:57.756Z,11.40
2017-05-04T13:34:26.247Z,11.30
2017-05-04T13:36:54.702Z,11.30
2017-05-04T13:39:22.903Z,11.30
2017-05-04T13:41:51.306Z,11.20
2017-05-04T13:44:19.243Z,11.10
2017-05-04T13:46:47.217Z,11.10
2017-05-04T13:49:15.676Z,11.00
2017-05-04T13:51:43.691Z,11.10
2017-05-04T13:54:11.827Z,11.10
2017-05-04T13:56:39.364Z,11.10
2017-05-04T13:59:07.260Z,11.00
2017-05-04T14:01:34.758Z,11.10
2017-05-04T14:04:03.301Z,11.00
2017-05-04T14:06:31.690Z,10.90
2017-05-04T14:09:00.019Z,10.90
2017-05-04T14:11:28.378Z,10.90
2017-05-04T14:13:56.071Z,10.80
2017-05-04T14:16:24.026Z,10.80
2017-05-04T14:18:51.898Z,10.80
2017-05-04T14:21:19.776Z,10.90
2017-05-04T14:23:47.726Z,11.00
2017-05-04T14:26:15.385Z,10.90
2017-05-04T14:28:43.312Z,11.00
2017-05-04T14:31:12.005Z,11.00
2017-05-04T14:33:39.970Z,10.90
2017-05-04T14:36:07.948Z,11.00
2017-05-04T14:38:36.167Z,11.00
2017-05-04T14:41:04.582Z,11.10
2017-05-04T14:43:33.096Z,11.20
2017-05-04T14:46:00.929Z,11.20
2017-05-04T14:48:28.851Z,11.30
2017-05-04T14:50:56.719Z,11.40
2017-05-04T14:53:24.600Z,11.50
2017-05-04T14:55:52.070Z,11.50
2017-05-04T14:58:19.547Z,11.60
2017-05-04T15:00:47.823Z,11.70
2017-05-04T15:03:15.309Z,11.70
2017-05-04T15:05:43.207Z,11.80
2017-05-04T15:08:11.228Z,11.90
2017-05-04T15:10:39.096Z,11.90
2017-05-04T15:13:06.975Z,12.00
2017-05-04T15:15:34.910Z,12.10
2017-05-04T15:18:02.421Z,12.10
2017-05-04T15:20:30.280Z,12.20
2017-05-04T15:22:58.170Z,12.20
2017-05-04T15:25:26.049Z,12.20
2017-05-04T15:27:53.549Z,12.20
2017-05-04T15:30:21.885Z,12.20
2017-05-04T15:32:50.157Z,12.20
2017-05-04T15:35:18.063Z,12.30
2017-05-04T15:37:45.966Z,12.30
2017-05-04T15:40:14.111Z,12.30
2017-05-04T15:42:42.391Z,12.40
2017-05-04T15:45:10.542Z,12.40
2017-05-04T15:47:39.340Z,12.40
2017-05-04T15:50:07.560Z,12.40
2017-05-04T15:52:35.938Z,12.40
2017-05-04T15:55:04.009Z,12.50
2017-05-04T15:57:32.305Z,12.50
2017-05-04T16:00:00.440Z,12.50
2017-05-04T16:02:28.292Z,12.50
2017-05-04T16:04:56.693Z,12.50
2017-05-04T16:07:24.831Z,12.60
2017-05-04T16:09:54.552Z,12.60
2017-05-04T16:12:22.450Z,12.60
2017-05-04T16:14:50.327Z,12.70
2017-05-04T16:17:18.594Z,12.70
2017-05-04T16:19:46.479Z,12.80
2017-05-04T16:22:13.979Z,12.80
2017-05-04T16:24:41.857Z,13.00
2017-05-04T16:27:09.772Z,13.10
2017-05-04T16:29:37.659Z,13.00
2017-05-04T16:32:05.552Z,12.90
2017-05-04T16:34:33.424Z,12.80
2017-05-04T16:37:01.313Z,12.80
2017-05-04T16:39:29.192Z,12.80
2017-05-04T16:41:57.457Z,12.70
2017-05-04T16:44:25.332Z,12.70
2017-05-04T16:46:53.843Z,12.70
2017-05-04T16:49:21.321Z,12.70
2017-05-04T16:51:49.228Z,12.70
2017-05-04T16:54:17.468Z,12.70
2017-05-04T16:56:45.940Z,12.60
2017-05-04T16:59:13.419Z,12.70
2017-05-04T17:01:40.972Z,12.60
2017-05-04T17:04:08.852Z,12.60
2017-05-04T17:06:36.748Z,12.60
2017-05-04T17:09:04.632Z,12.60
2017-05-04T17:11:32.528Z,12.60
2017-05-04T17:14:00.400Z,12.60
2017-05-04T17:16:28.283Z,12.60
2017-05-04T17:18:55.755Z,12.60
2017-05-04T17:21:23.784Z,12.50
2017-05-04T17:23:51.268Z,12.50
2017-05-04T17:26:19.147Z,12.50
2017-05-04T17:28:47.119Z,12.50
2017-05-04T17:31:17.469Z,12.50
2017-05-04T17:33:58.797Z,12.40
2017-05-04T17:36:33.302Z,12.40
2017-05-04T17:39:02.859Z,12.40
2017-05-04T17:41:31.725Z,12.30
2017-05-04T17:44:00.538Z,12.20
2017-05-04T17:46:29.402Z,12.20
2017-05-04T17:49:06.933Z,12.20
2017-05-04T17:51:34.834Z,12.20
2017-05-04T17:54:02.694Z,12.10
2017-05-04T17:56:30.577Z,12.10
2017-05-04T17:58:59.238Z,12.00
2017-05-04T18:01:27.127Z,12.00
2017-05-04T18:03:54.991Z,11.90
2017-05-04T18:06:22.957Z,11.90
2017-05-04T18:08:50.439Z,11.90
2017-05-04T18:11:18.319Z,11.80
2017-05-04T18:13:46.186Z,11.80
2017-05-04T18:16:14.215Z,11.80
2017-05-04T18:18:41.679Z,11.80
2017-05-04T18:21:09.754Z,11.80
2017-05-04T18:23:37.708Z,11.70
2017-05-04T18:26:05.643Z,11.60
2017-05-04T18:28:33.503Z,11.60
2017-05-04T18:31:01.351Z,11.60
2017-05-04T18:33:29.234Z,11.60
2017-05-04T18:35:57.133Z,11.60
2017-05-04T18:38:25.129Z,11.50
2017-05-04T18:40:53.276Z,11.50
2017-05-04T18:43:21.323Z,11.50
2017-05-04T18:45:49.735Z,11.50
2017-05-04T18:48:17.535Z,11.50
2017-05-04T18:50:45.554Z,11.40
2017-05-04T18:53:13.534Z,11.40
2017-05-04T18:55:41.566Z,11.30
2017-05-04T18:58:09.699Z,11.30
2017-05-04T19:00:37.286Z,11.30
2017-05-04T19:03:05.392Z,11.30
2017-05-04T19:05:33.301Z,11.20
2017-05-04T19:08:02.055Z,11.20
2017-05-04T19:10:29.639Z,11.20
2017-05-04T19:12:57.708Z,11.20
2017-05-04T19:15:25.631Z,11.10
2017-05-04T19:17:53.455Z,11.10
2017-05-04T19:20:21.438Z,11.10
2017-05-04T19:22:49.294Z,11.10
2017-05-04T19:25:17.292Z,11.10
2017-05-04T19:27:45.658Z,11.10
2017-05-04T19:30:13.969Z,11.20
2017-05-04T19:32:41.841Z,11.10
2017-05-04T19:35:09.900Z,11.10
2017-05-04T19:37:37.644Z,11.10
2017-05-04T19:40:06.051Z,11.10
2017-05-04T19:42:33.515Z,11.10
2017-05-04T19:45:01.196Z,11.10
2017-05-04T19:47:29.548Z,11.10
2017-05-04T19:49:58.121Z,11.00
2017-05-04T19:52:25.984Z,11.00
2017-05-04T19:54:53.863Z,11.00
2017-05-04T19:57:21.579Z,11.00
2017-05-04T19:59:49.488Z,11.00
2017-05-04T20:02:17.456Z,11.00
2017-05-04T20:04:45.386Z,11.10
2017-05-04T20:07:14.415Z,11.00
2017-05-04T20:09:42.378Z,11.00
2017-05-04T20:12:10.243Z,11.00
2017-05-04T20:14:38.118Z,11.00
2017-05-04T20:17:05.618Z,11.00
2017-05-04T20:19:33.500Z,11.00
2017-05-04T20:22:01.747Z,10.90
2017-05-04T20:24:29.919Z,10.90
2017-05-04T20:26:57.843Z,10.90
2017-05-04T20:29:25.387Z,10.90
2017-05-04T20:31:54.035Z,10.80
2017-05-04T20:34:22.018Z,10.80
2017-05-04T20:36:50.173Z,10.80
2017-05-04T20:39:18.199Z,10.70
2017-05-04T20:41:46.027Z,10.80
2017-05-04T20:44:13.517Z,10.70
2017-05-04T20:46:41.787Z,10.70
2017-05-04T20:49:09.283Z,10.70
2017-05-04T20:51:36.755Z,10.70
2017-05-04T20:54:05.303Z,10.60
2017-05-04T20:56:33.171Z,10.60
2017-05-04T20:59:01.174Z,10.70
2017-05-04T21:01:29.302Z,10.70
2017-05-04T21:03:58.028Z,10.70
2017-05-04T21:06:25.890Z,10.60
2017-05-04T21:08:53.407Z,10.60
2017-05-04T21:11:21.688Z,10.60
2017-05-04T21:13:49.902Z,10.60
2017-05-04T21:16:18.044Z,10.60
2017-05-04T21:18:45.907Z,10.60
2017-05-04T21:21:13.766Z,10.60
2017-05-04T21:23:42.005Z,10.60
2017-05-04T21:26:11.168Z,10.60
2017-05-04T21:28:40.027Z,10.60
2017-05-04T21:31:07.893Z,10.50
2017-05-04T21:33:35.560Z,10.50
2017-05-04T21:36:03.613Z,10.50
2017-05-04T21:38:31.895Z,10.50
2017-05-04T21:40:59.362Z,10.50
2017-05-04T21:43:27.246Z,10.50
2017-05-04T21:45:55.367Z,10.50
2017-05-04T21:48:23.719Z,10.50
2017-05-04T21:50:51.599Z,10.40
2017-05-04T21:53:19.483Z,10.40
2017-05-04T21:55:47.343Z,10.40
2017-05-04T21:58:15.226Z,10.40
2017-05-04T22:00:43.089Z,10.40
2017-05-04T22:03:11.473Z,10.40
2017-05-04T22:05:39.495Z,10.40
2017-05-04T22:08:08.222Z,10.40
2017-05-04T22:10:36.792Z,10.40
2017-05-04T22:13:04.950Z,10.40
2017-05-04T22:15:33.242Z,10.30
2017-05-04T22:18:01.138Z,10.30
2017-05-04T22:20:29.505Z,10.30
2017-05-04T22:22:58.050Z,10.30
2017-05-04T22:25:26.309Z,10.30
2017-05-04T22:27:54.145Z,10.30
2017-05-04T22:30:22.501Z,10.20
2017-05-04T22:32:50.239Z,10.20
2017-05-04T22:35:18.967Z,10.30
2017-05-04T22:37:47.605Z,10.30
2017-05-04T22:40:15.086Z,10.20
2017-05-04T22:42:42.639Z,10.10
2017-05-04T22:45:10.519Z,10.20
2017-05-04T22:47:38.510Z,10.20
2017-05-04T22:50:06.083Z,10.20
2017-05-04T22:52:34.479Z,10.10
2017-05-04T22:55:03.145Z,10.10
2017-05-04T22:57:31.022Z,10.10
2017-05-04T22:59:58.975Z,10.10
2017-05-04T23:02:26.839Z,10.10
2017-05-04T23:04:54.323Z,10.10
2017-05-04T23:07:22.196Z,10.00
2017-05-04T23:09:50.070Z,10.00
2017-05-04T23:12:17.922Z,10.00
2017-05-04T23:14:45.810Z,10.00
2017-05-04T23:17:13.675Z,9.90
2017-05-04T23:19:41.551Z,10.00
2017-05-04T23:22:09.414Z,9.90
2017-05-04T23:24:37.284Z,9.90
2017-05-04T23:27:05.144Z,9.90
2017-05-04T23:29:33.019Z,9.80
2017-05-04T23:32:00.875Z,9.90
2017-05-04T23:34:28.754Z,9.80
2017-05-04T23:36:56.608Z,9.80
2017-05-04T23:39:24.462Z,9.80
2017-05-04T23:41:52.334Z,9.80
2017-05-04T23:44:20.202Z,9.80
2017-05-04T23:46:48.061Z,9.80
2017-05-04T23:49:15.522Z,9.80
2017-05-04T23:51:43.394Z,9.80
2017-05-04T23:54:11.272Z,9.80
2017-05-04T23:56:39.132Z,9.80
2017-05-04T23:59:07.017Z,9.70
